Tulsa, OK

9:03 AM CDT on July 05, 2015 (GMT -0500)
Tulsa International | | Change Station
CLOSE
Current Station
Airport
Location: Tulsa,
Elevation: 676 ft
Nearby Weather Stations

Elev 676 ft 36.20 °N, 95.89 °W | Updated 10 minutes ago

Scattered Clouds
Scattered Clouds
79 °F
Feels Like 79 °F
N
12
Wind Variable Wind from South

Today
High -- | Low -- °F
--% Chance of Precip.
Yesterday
High -- | Low -- °F
Precip. -- in
6:11 AM 8:44 PM
Waning Gibbous, 84% visible
Pressure 29.97 in
Visibility 10.0 miles
Clouds Few 1500 ft
Few 8000 ft
Scattered Clouds 25000 ft
Dew Point 72 °F
Humidity 79%
Rainfall 0.00 in
Snow Depth Not available.
UV 2 out of 12
Pollen 1.30 out of 12
Air Quality Not available.
Flu Activity Not available.
METAR KTUL 051353Z 18010KT 10SM FEW015 FEW080 SCT250 26/22 A3000 RMK AO2 SLP149 CB DSNT NW MOV E T02610222 $

More Conditions Fewer Conditions

Pressure 29.97 in
Visibility 10.0 miles
Clouds Few 1500 ft
Few 8000 ft
Scattered Clouds 25000 ft
Dew Point 72 °F
Humidity 79%
Rainfall 0.00 in
Snow Depth Not available.
UV 2 out of 12
Pollen 1.30 out of 12
Air Quality Not available.
Flu Activity Not available.
METAR KTUL 051353Z 18010KT 10SM FEW015 FEW080 SCT250 26/22 A3000 RMK AO2 SLP149 CB DSNT NW MOV E T02610222 $

More Conditions Fewer Conditions

Nowcast | as of 9:00 am CDT on July 5, 2015

At 9 am...National Weather Service radars continued to detect thunderstorms and rainshowers over portions of northeast Oklahoma. This activity was located across the western half of Osage County...near Avant and South Coffeyville. Movement was to the east at 20 miles an hour. Through 10 am...thunderstorms and rainshowers will remain possible over northeast Oklahoma north of Highway 412...mainly from Fairfax to Miami. Brief heavy rainfall and dangerous cloud to ground lightning will be possible with any of the stronger storms.

×

10-Day Weather Forecast

×

Almanac

Astronomy

Jul. 05, 2015 Rise Set
Actual Time
Civil Twilight
Nautical Twilight
Astronomical Twilight
Moon
Length of Visible Light
Length of Day
Tomorrow will be .
, % of the Moon is Illuminated

Today's Extremes

State Highs State Lows

Community

WunderPhotos

Upload Photos

1,835,259 photos uploaded!

WunderBlogs® & News

Nearby

Air Quality

  Air Quality AQ Index Pollutant
Not available.

Snow Depth

Station Depth Elevation

Earthquake Activity

City Distance Mag. Time & Date
Minimum magnitude displayed is 2.5.

Coastal Water Temperatures

Place Temperature

Stations

Nearby Weather Stations

Station Location Temp. Windchill Dew Point Humidity Wind Precip. Elev Updated Type